Main page
Satellite images 15-day forecastsClimateMarine weather Cyclones Lightning AirportsFAQ Newsletter About
Weather : Europe Africa North America South America Asia Australia-Oceania Others
Languages Contact

Asunción, Paraguay

Aeropuerto Internacional Silvio Pettirossi (Luque)

latitude: 25-16S, longitude: 057-38W, elevation: 101 m


METAR: SGAS 221700Z VRB06KT 9999 FEW033 33/17 Q1014
TAF: SGAS 221550Z 2218/2318 03009KT CAVOK TX35/2219Z TN22/2310Z TEMPO 2220/2300 05005KT 8000 NSC BECMG 2301/2303 CAVOK

Time: 05:38 (08:38 UTC)

Current weather observation

The report was made 15 hours and 38 minutes ago, at 17:00 UTC
Wind 6 kt from variable directions
Temperature 33°C
Humidity 39%
Pressure 1014 hPa
Visibility 10 km or more
Few clouds at a height of 3300 ft

Change units

Forecast

The report was made 16 hours and 48 minutes ago, at 15:50 UTC
Forecast valid from 22 at 18 UTC to 23 at 18 UTC
Wind 9 kt from the North/Northeast
Visibility 10 km or more
no clouds below 1500 m and no cumulonimbus
Temporary
from 22 at 20 UTC to 23 at 00 UTC
Wind 5 kt from the Northeast
Visibility: 8000 m
Becoming
from 23 at 01 UTC to 23 at 03 UTC
Visibility 10 km or more
no clouds below 1500 m and no cumulonimbus
The information on this site is subject to a disclaimer
Weather : Europe Africa North America South America Asia Australia-Oceania Others
Satellite images 15-day forecastsClimateMarine weather Cyclones Lightning AirportsFAQ Languages Contact Newsletter About